sensor_id;sensor_type;location;lat;lon;timestamp;pressure;altitude;pressure_sealevel;temperature;humidity
57904;BME280;43720;47.462;19.030;2023-07-24T04:07:17;100014.31;;;21.14;100.00
57904;BME280;43720;47.462;19.030;2023-07-24T04:10:19;100019.59;;;21.16;100.00
57904;BME280;43720;47.462;19.030;2023-07-24T04:13:22;100023.75;;;21.23;100.00
57904;BME280;43720;47.462;19.030;2023-07-24T04:16:24;100025.69;;;21.18;100.00
57904;BME280;43720;47.462;19.030;2023-07-24T04:20:14;100020.37;;;21.18;100.00
57904;BME280;43720;47.462;19.030;2023-07-24T04:23:16;100029.44;;;21.12;100.00
57904;BME280;43720;47.462;19.030;2023-07-24T04:26:19;100022.44;;;21.10;100.00
57904;BME280;43720;47.462;19.030;2023-07-24T04:29:21;100018.53;;;21.20;100.00
57904;BME280;43720;47.462;19.030;2023-07-24T04:32:26;100023.78;;;21.21;100.00
57904;BME280;43720;47.462;19.030;2023-07-24T04:35:30;100007.91;;;21.20;100.00
57904;BME280;43720;47.462;19.030;2023-07-24T04:38:32;100014.75;;;21.27;100.00
57904;BME280;43720;47.462;19.030;2023-07-24T04:41:34;100007.31;;;21.38;100.00
57904;BME280;43720;47.462;19.030;2023-07-24T04:44:36;100006.44;;;21.38;100.00
57904;BME280;43720;47.462;19.030;2023-07-24T04:47:39;100013.53;;;21.37;100.00
57904;BME280;43720;47.462;19.030;2023-07-24T04:50:41;100013.31;;;21.43;100.00
57904;BME280;43720;47.462;19.030;2023-07-24T04:53:44;100018.62;;;21.43;100.00
57904;BME280;43720;47.462;19.030;2023-07-24T04:56:46;100024.44;;;21.55;100.00
57904;BME280;43720;47.462;19.030;2023-07-24T04:59:49;100031.59;;;21.53;100.00
57904;BME280;43720;47.462;19.030;2023-07-24T05:02:51;100028.91;;;21.54;100.00
57904;BME280;43720;47.462;19.030;2023-07-24T05:05:54;100026.16;;;21.56;100.00
57904;BME280;43720;47.462;19.030;2023-07-24T05:08:57;100028.84;;;21.79;100.00
57904;BME280;43720;47.462;19.030;2023-07-24T05:12:00;100030.81;;;21.74;100.00
57904;BME280;43720;47.462;19.030;2023-07-24T05:15:02;100023.87;;;21.93;100.00
57904;BME280;43720;47.462;19.030;2023-07-24T05:18:05;100026.06;;;22.06;100.00
57904;BME280;43720;47.462;19.030;2023-07-24T05:21:07;100023.09;;;22.15;100.00
57904;BME280;43720;47.462;19.030;2023-07-24T05:24:09;100028.16;;;22.21;100.00
57904;BME280;43720;47.462;19.030;2023-07-24T05:27:12;100028.25;;;22.19;100.00
57904;BME280;43720;47.462;19.030;2023-07-24T05:30:15;100025.62;;;22.18;100.00
57904;BME280;43720;47.462;19.030;2023-07-24T05:33:17;100034.44;;;22.20;100.00
57904;BME280;43720;47.462;19.030;2023-07-24T05:36:20;100027.37;;;22.19;100.00
57904;BME280;43720;47.462;19.030;2023-07-24T05:39:22;100026.16;;;22.28;100.00
57904;BME280;43720;47.462;19.030;2023-07-24T05:42:24;100018.41;;;22.43;100.00
57904;BME280;43720;47.462;19.030;2023-07-24T05:45:27;100027.19;;;22.45;100.00
57904;BME280;43720;47.462;19.030;2023-07-24T05:48:30;100023.66;;;22.45;100.00
57904;BME280;43720;47.462;19.030;2023-07-24T05:51:32;100024.72;;;22.63;100.00
57904;BME280;43720;47.462;19.030;2023-07-24T05:54:35;100026.25;;;22.68;100.00
57904;BME280;43720;47.462;19.030;2023-07-24T05:57:38;100021.81;;;22.69;100.00
57904;BME280;43720;47.462;19.030;2023-07-24T06:00:40;100027.16;;;22.69;100.00
57904;BME280;43720;47.462;19.030;2023-07-24T06:03:43;100023.28;;;22.76;100.00
57904;BME280;43720;47.462;19.030;2023-07-24T06:06:45;100013.25;;;22.83;100.00
57904;BME280;43720;47.462;19.030;2023-07-24T06:09:48;100006.56;;;22.94;100.00
57904;BME280;43720;47.462;19.030;2023-07-24T06:12:50;99999.91;;;23.05;99.92
57904;BME280;43720;47.462;19.030;2023-07-24T06:15:53;100000.31;;;23.16;98.89
57904;BME280;43720;47.462;19.030;2023-07-24T06:18:55;99999.91;;;23.25;98.62
57904;BME280;43720;47.462;19.030;2023-07-24T06:21:58;99999.56;;;23.33;98.09
57904;BME280;43720;47.462;19.030;2023-07-24T06:25:00;100003.41;;;23.46;98.02
57904;BME280;43720;47.462;19.030;2023-07-24T06:28:03;100009.22;;;23.56;96.36
57904;BME280;43720;47.462;19.030;2023-07-24T06:31:05;100001.81;;;23.62;97.11
57904;BME280;43720;47.462;19.030;2023-07-24T06:34:16;99998.28;;;23.62;96.70
57904;BME280;43720;47.462;19.030;2023-07-24T06:37:19;99996.28;;;23.67;97.59
57904;BME280;43720;47.462;19.030;2023-07-24T06:40:24;99990.97;;;23.86;96.00
57904;BME280;43720;47.462;19.030;2023-07-24T06:43:26;99997.81;;;23.91;96.07
57904;BME280;43720;47.462;19.030;2023-07-24T06:46:30;99997.22;;;24.04;96.84
57904;BME280;43720;47.462;19.030;2023-07-24T06:49:34;99998.47;;;24.15;96.15
57904;BME280;43720;47.462;19.030;2023-07-24T06:52:37;99995.78;;;24.15;96.26
57904;BME280;43720;47.462;19.030;2023-07-24T06:55:41;99998.25;;;24.20;97.70
57904;BME280;43720;47.462;19.030;2023-07-24T06:58:43;99994.72;;;24.38;96.72
57904;BME280;43720;47.462;19.030;2023-07-24T07:01:45;99997.38;;;24.38;96.67
57904;BME280;43720;47.462;19.030;2023-07-24T07:04:48;100001.19;;;24.52;96.68
57904;BME280;43720;47.462;19.030;2023-07-24T07:07:50;99986.22;;;24.67;95.70
57904;BME280;43720;47.462;19.030;2023-07-24T07:11:00;99985.41;;;24.82;95.49
57904;BME280;43720;47.462;19.030;2023-07-24T07:14:02;99983.00;;;24.95;94.65
57904;BME280;43720;47.462;19.030;2023-07-24T07:17:05;99976.56;;;24.99;94.21
57904;BME280;43720;47.462;19.030;2023-07-24T07:20:07;99970.81;;;25.06;93.76
57904;BME280;43720;47.462;19.030;2023-07-24T07:23:10;99965.66;;;25.21;93.71
57904;BME280;43720;47.462;19.030;2023-07-24T07:26:12;99972.53;;;25.42;92.98
57904;BME280;43720;47.462;19.030;2023-07-24T07:29:14;99964.78;;;25.53;91.57
57904;BME280;43720;47.462;19.030;2023-07-24T07:32:16;99960.12;;;25.57;90.75
57904;BME280;43720;47.462;19.030;2023-07-24T07:35:19;99954.09;;;25.69;88.65
57904;BME280;43720;47.462;19.030;2023-07-24T07:38:21;99958.44;;;25.72;88.44
57904;BME280;43720;47.462;19.030;2023-07-24T07:41:26;99946.28;;;25.82;87.08
57904;BME280;43720;47.462;19.030;2023-07-24T07:44:29;99950.72;;;25.83;86.66
57904;BME280;43720;47.462;19.030;2023-07-24T07:47:31;99944.41;;;26.00;84.47
57904;BME280;43720;47.462;19.030;2023-07-24T07:50:34;99943.59;;;25.98;85.76
57904;BME280;43720;47.462;19.030;2023-07-24T07:53:36;99937.38;;;26.13;86.15
57904;BME280;43720;47.462;19.030;2023-07-24T07:56:38;99935.81;;;26.25;83.99
57904;BME280;43720;47.462;19.030;2023-07-24T07:59:41;99943.94;;;26.23;82.69
57904;BME280;43720;47.462;19.030;2023-07-24T08:02:44;99941.53;;;26.34;82.67
57904;BME280;43720;47.462;19.030;2023-07-24T08:05:46;99937.88;;;26.51;82.93
57904;BME280;43720;47.462;19.030;2023-07-24T08:08:48;99930.75;;;26.66;82.19
57904;BME280;43720;47.462;19.030;2023-07-24T08:11:51;99939.13;;;26.76;80.31
57904;BME280;43720;47.462;19.030;2023-07-24T08:14:53;99943.97;;;26.99;78.47
57904;BME280;43720;47.462;19.030;2023-07-24T08:17:55;99937.06;;;26.95;77.88
57904;BME280;43720;47.462;19.030;2023-07-24T08:20:58;99923.22;;;26.87;78.58
57904;BME280;43720;47.462;19.030;2023-07-24T08:24:01;99929.09;;;26.94;78.66
57904;BME280;43720;47.462;19.030;2023-07-24T08:27:04;99918.69;;;27.03;78.20
57904;BME280;43720;47.462;19.030;2023-07-24T08:30:07;99926.00;;;27.16;76.86
57904;BME280;43720;47.462;19.030;2023-07-24T08:33:09;99927.19;;;27.26;75.71
57904;BME280;43720;47.462;19.030;2023-07-24T08:36:11;99931.28;;;27.31;74.35
57904;BME280;43720;47.462;19.030;2023-07-24T08:39:14;99929.56;;;27.45;75.13
57904;BME280;43720;47.462;19.030;2023-07-24T08:42:17;99922.28;;;27.61;73.89
57904;BME280;43720;47.462;19.030;2023-07-24T08:45:20;99926.88;;;27.73;73.11
57904;BME280;43720;47.462;19.030;2023-07-24T08:48:23;99914.31;;;27.88;70.76
57904;BME280;43720;47.462;19.030;2023-07-24T08:51:25;99912.28;;;27.92;68.31
57904;BME280;43720;47.462;19.030;2023-07-24T08:54:30;99908.16;;;27.86;69.08
57904;BME280;43720;47.462;19.030;2023-07-24T08:57:32;99906.50;;;27.98;68.93
57904;BME280;43720;47.462;19.030;2023-07-24T09:00:35;99896.16;;;28.19;66.50
57904;BME280;43720;47.462;19.030;2023-07-24T09:03:37;99895.66;;;28.26;64.70
57904;BME280;43720;47.462;19.030;2023-07-24T09:06:40;99892.94;;;28.26;65.91
57904;BME280;43720;47.462;19.030;2023-07-24T09:09:43;99889.28;;;28.42;62.49
57904;BME280;43720;47.462;19.030;2023-07-24T09:12:46;99880.03;;;28.46;63.57
57904;BME280;43720;47.462;19.030;2023-07-24T09:15:48;99884.94;;;28.66;61.66
57904;BME280;43720;47.462;19.030;2023-07-24T09:18:51;99877.28;;;28.73;62.30
57904;BME280;43720;47.462;19.030;2023-07-24T09:22:14;99874.75;;;28.97;61.11
57904;BME280;43720;47.462;19.030;2023-07-24T09:25:16;99874.25;;;29.05;60.21
57904;BME280;43720;47.462;19.030;2023-07-24T09:28:19;99873.81;;;29.23;58.21
57904;BME280;43720;47.462;19.030;2023-07-24T09:31:34;99865.72;;;29.23;57.04
57904;BME280;43720;47.462;19.030;2023-07-24T09:34:42;99865.06;;;29.33;56.46
57904;BME280;43720;47.462;19.030;2023-07-24T09:37:45;99870.31;;;29.47;55.36
57904;BME280;43720;47.462;19.030;2023-07-24T09:40:48;99879.66;;;29.54;54.96
57904;BME280;43720;47.462;19.030;2023-07-24T09:43:58;99866.44;;;29.51;55.54
57904;BME280;43720;47.462;19.030;2023-07-24T09:47:01;99850.25;;;29.51;55.30
57904;BME280;43720;47.462;19.030;2023-07-24T09:50:24;99846.34;;;29.68;51.76
57904;BME280;43720;47.462;19.030;2023-07-24T09:56:47;99831.19;;;29.91;49.71
57904;BME280;43720;47.462;19.030;2023-07-24T10:00:01;99830.12;;;30.05;47.87
57904;BME280;43720;47.462;19.030;2023-07-24T10:03:05;99826.59;;;30.04;48.96
57904;BME280;43720;47.462;19.030;2023-07-24T10:06:08;99822.03;;;30.17;49.00
57904;BME280;43720;47.462;19.030;2023-07-24T10:09:12;99821.81;;;30.20;49.04
57904;BME280;43720;47.462;19.030;2023-07-24T10:12:17;99819.13;;;30.32;48.25
57904;BME280;43720;47.462;19.030;2023-07-24T10:15:20;99813.03;;;30.41;47.18
57904;BME280;43720;47.462;19.030;2023-07-24T10:18:27;99804.47;;;30.58;47.41
57904;BME280;43720;47.462;19.030;2023-07-24T10:21:30;99801.69;;;30.71;47.07
57904;BME280;43720;47.462;19.030;2023-07-24T10:24:33;99805.31;;;30.94;46.37
57904;BME280;43720;47.462;19.030;2023-07-24T10:27:44;99805.56;;;31.02;45.08
57904;BME280;43720;47.462;19.030;2023-07-24T10:30:55;99807.28;;;31.03;44.89
57904;BME280;43720;47.462;19.030;2023-07-24T10:34:05;99789.84;;;31.18;43.61
57904;BME280;43720;47.462;19.030;2023-07-24T10:37:09;99783.94;;;31.25;43.27
57904;BME280;43720;47.462;19.030;2023-07-24T10:40:20;99781.84;;;31.17;44.72
57904;BME280;43720;47.462;19.030;2023-07-24T10:43:23;99776.34;;;31.30;43.34
57904;BME280;43720;47.462;19.030;2023-07-24T10:46:37;99775.84;;;31.36;42.46
57904;BME280;43720;47.462;19.030;2023-07-24T10:49:48;99766.25;;;31.43;42.87
57904;BME280;43720;47.462;19.030;2023-07-24T10:52:51;99769.19;;;31.40;42.83
57904;BME280;43720;47.462;19.030;2023-07-24T10:55:53;99763.16;;;31.48;41.86
57904;BME280;43720;47.462;19.030;2023-07-24T10:58:55;99761.44;;;31.58;42.80
57904;BME280;43720;47.462;19.030;2023-07-24T11:01:58;99754.91;;;31.72;42.76
57904;BME280;43720;47.462;19.030;2023-07-24T11:05:02;99744.63;;;31.86;41.04
57904;BME280;43720;47.462;19.030;2023-07-24T11:08:11;99738.06;;;32.00;41.76
57904;BME280;43720;47.462;19.030;2023-07-24T11:11:17;99740.72;;;32.11;41.40
57904;BME280;43720;47.462;19.030;2023-07-24T11:14:20;99730.28;;;32.28;40.39
57904;BME280;43720;47.462;19.030;2023-07-24T11:17:33;99724.44;;;32.44;40.33
57904;BME280;43720;47.462;19.030;2023-07-24T11:20:38;99723.44;;;32.96;38.82
57904;BME280;43720;47.462;19.030;2023-07-24T11:23:53;99719.72;;;32.97;39.04
57904;BME280;43720;47.462;19.030;2023-07-24T11:26:55;99715.66;;;32.82;40.26
57904;BME280;43720;47.462;19.030;2023-07-24T11:29:58;99707.91;;;33.48;39.96
57904;BME280;43720;47.462;19.030;2023-07-24T11:33:03;99702.19;;;34.19;38.80
57904;BME280;43720;47.462;19.030;2023-07-24T11:36:07;99683.53;;;35.18;35.84
57904;BME280;43720;47.462;19.030;2023-07-24T11:39:10;99665.41;;;36.16;33.18
57904;BME280;43720;47.462;19.030;2023-07-24T11:42:12;99660.03;;;36.51;33.86
57904;BME280;43720;47.462;19.030;2023-07-24T11:45:15;99662.53;;;36.70;33.51
57904;BME280;43720;47.462;19.030;2023-07-24T11:48:18;99655.44;;;36.93;32.42
57904;BME280;43720;47.462;19.030;2023-07-24T11:51:21;99642.63;;;37.20;31.94
57904;BME280;43720;47.462;19.030;2023-07-24T11:54:24;99646.91;;;37.39;29.06
57904;BME280;43720;47.462;19.030;2023-07-24T11:57:27;99635.13;;;37.14;29.33
57904;BME280;43720;47.462;19.030;2023-07-24T12:00:33;99628.37;;;37.59;28.94
57904;BME280;43720;47.462;19.030;2023-07-24T12:03:40;99634.69;;;38.00;28.35
57904;BME280;43720;47.462;19.030;2023-07-24T12:06:43;99630.66;;;38.52;28.49
57904;BME280;43720;47.462;19.030;2023-07-24T12:09:52;99630.06;;;38.73;28.65
57904;BME280;43720;47.462;19.030;2023-07-24T12:12:55;99624.38;;;39.45;26.97
57904;BME280;43720;47.462;19.030;2023-07-24T12:16:00;99614.59;;;38.57;28.64
57904;BME280;43720;47.462;19.030;2023-07-24T12:19:02;99621.41;;;38.61;29.03
57904;BME280;43720;47.462;19.030;2023-07-24T12:22:05;99604.37;;;38.51;28.89
57904;BME280;43720;47.462;19.030;2023-07-24T12:25:07;99606.06;;;38.91;29.01
57904;BME280;43720;47.462;19.030;2023-07-24T12:28:10;99604.03;;;39.16;28.34
57904;BME280;43720;47.462;19.030;2023-07-24T12:31:12;99602.09;;;39.94;27.96
57904;BME280;43720;47.462;19.030;2023-07-24T12:34:14;99606.63;;;39.41;27.41
57904;BME280;43720;47.462;19.030;2023-07-24T12:37:17;99590.41;;;39.39;27.91
57904;BME280;43720;47.462;19.030;2023-07-24T12:40:20;99588.47;;;38.94;27.90
57904;BME280;43720;47.462;19.030;2023-07-24T12:43:22;99585.03;;;39.00;28.34
57904;BME280;43720;47.462;19.030;2023-07-24T12:46:25;99564.91;;;39.16;28.46
57904;BME280;43720;47.462;19.030;2023-07-24T12:49:27;99558.87;;;39.28;28.85
57904;BME280;43720;47.462;19.030;2023-07-24T12:52:29;99560.16;;;39.09;29.55
57904;BME280;43720;47.462;19.030;2023-07-24T12:55:32;99562.34;;;39.14;29.21
57904;BME280;43720;47.462;19.030;2023-07-24T12:58:35;99551.53;;;39.21;29.21
57904;BME280;43720;47.462;19.030;2023-07-24T13:01:37;99552.16;;;39.08;28.91
57904;BME280;43720;47.462;19.030;2023-07-24T13:04:40;99552.75;;;39.18;27.79
57904;BME280;43720;47.462;19.030;2023-07-24T13:07:42;99546.28;;;39.42;27.70
57904;BME280;43720;47.462;19.030;2023-07-24T13:10:44;99543.63;;;38.40;29.45
57904;BME280;43720;47.462;19.030;2023-07-24T13:13:47;99527.78;;;37.56;31.01
57904;BME280;43720;47.462;19.030;2023-07-24T13:16:50;99526.00;;;36.89;32.21
57904;BME280;43720;47.462;19.030;2023-07-24T13:19:52;99535.03;;;36.39;33.48
57904;BME280;43720;47.462;19.030;2023-07-24T13:22:55;99540.59;;;35.69;34.88
57904;BME280;43720;47.462;19.030;2023-07-24T13:25:57;99537.31;;;35.40;34.71
57904;BME280;43720;47.462;19.030;2023-07-24T13:28:59;99518.19;;;35.06;34.85
57904;BME280;43720;47.462;19.030;2023-07-24T13:32:02;99512.34;;;35.00;35.56
57904;BME280;43720;47.462;19.030;2023-07-24T13:35:04;99505.75;;;34.85;36.61
57904;BME280;43720;47.462;19.030;2023-07-24T13:38:07;99500.75;;;34.63;36.70
57904;BME280;43720;47.462;19.030;2023-07-24T13:41:12;99500.75;;;34.63;36.30
57904;BME280;43720;47.462;19.030;2023-07-24T13:44:14;99482.81;;;34.52;36.65
57904;BME280;43720;47.462;19.030;2023-07-24T13:47:17;99485.41;;;34.44;36.71
57904;BME280;43720;47.462;19.030;2023-07-24T13:50:19;99489.81;;;34.72;35.72
57904;BME280;43720;47.462;19.030;2023-07-24T13:53:22;99483.06;;;34.76;35.43
57904;BME280;43720;47.462;19.030;2023-07-24T13:56:24;99476.16;;;34.82;35.46
57904;BME280;43720;47.462;19.030;2023-07-24T13:59:26;99477.78;;;34.75;35.84
57904;BME280;43720;47.462;19.030;2023-07-24T14:02:28;99475.81;;;34.22;36.94
57904;BME280;43720;47.462;19.030;2023-07-24T14:05:31;99475.19;;;33.73;37.53
57904;BME280;43720;47.462;19.030;2023-07-24T14:08:34;99460.97;;;33.51;35.61
57904;BME280;43720;47.462;19.030;2023-07-24T14:11:37;99450.41;;;33.48;34.84
57904;BME280;43720;47.462;19.030;2023-07-24T14:14:39;99437.13;;;33.55;34.17
57904;BME280;43720;47.462;19.030;2023-07-24T14:17:41;99420.53;;;33.68;35.29
57904;BME280;43720;47.462;19.030;2023-07-24T14:20:43;99418.12;;;34.02;36.16
57904;BME280;43720;47.462;19.030;2023-07-24T14:23:46;99412.59;;;34.39;36.16
57904;BME280;43720;47.462;19.030;2023-07-24T14:26:48;99405.69;;;34.45;35.71
57904;BME280;43720;47.462;19.030;2023-07-24T14:29:51;99399.09;;;34.47;35.72
57904;BME280;43720;47.462;19.030;2023-07-24T14:32:53;99402.22;;;34.52;34.68
57904;BME280;43720;47.462;19.030;2023-07-24T14:35:55;99395.22;;;34.32;34.66
57904;BME280;43720;47.462;19.030;2023-07-24T14:38:57;99393.03;;;34.18;34.63
57904;BME280;43720;47.462;19.030;2023-07-24T14:42:00;99397.56;;;33.99;35.19
57904;BME280;43720;47.462;19.030;2023-07-24T14:45:02;99388.72;;;33.70;35.09
57904;BME280;43720;47.462;19.030;2023-07-24T14:48:06;99378.31;;;33.65;35.74
57904;BME280;43720;47.462;19.030;2023-07-24T14:51:11;99365.47;;;33.67;34.51
57904;BME280;43720;47.462;19.030;2023-07-24T14:54:14;99350.22;;;33.66;34.12
57904;BME280;43720;47.462;19.030;2023-07-24T14:57:16;99359.97;;;33.49;34.39
57904;BME280;43720;47.462;19.030;2023-07-24T15:00:27;99355.72;;;33.37;34.86
57904;BME280;43720;47.462;19.030;2023-07-24T15:03:31;99340.38;;;33.18;35.53
57904;BME280;43720;47.462;19.030;2023-07-24T15:06:33;99325.03;;;33.09;35.39
57904;BME280;43720;47.462;19.030;2023-07-24T15:09:35;99330.00;;;33.14;34.78
57904;BME280;43720;47.462;19.030;2023-07-24T15:12:38;99335.22;;;33.34;34.89
57904;BME280;43720;47.462;19.030;2023-07-24T15:15:40;99342.06;;;33.29;35.59
57904;BME280;43720;47.462;19.030;2023-07-24T15:18:43;99336.13;;;33.16;35.15
57904;BME280;43720;47.462;19.030;2023-07-24T15:21:45;99324.75;;;33.02;36.23
57904;BME280;43720;47.462;19.030;2023-07-24T15:24:47;99327.59;;;32.91;35.83
57904;BME280;43720;47.462;19.030;2023-07-24T15:27:49;99325.22;;;32.88;36.15
57904;BME280;43720;47.462;19.030;2023-07-24T15:30:52;99327.09;;;33.25;35.77
57904;BME280;43720;47.462;19.030;2023-07-24T15:33:54;99320.19;;;33.40;33.76
57904;BME280;43720;47.462;19.030;2023-07-24T15:36:57;99315.75;;;33.49;33.51
57904;BME280;43720;47.462;19.030;2023-07-24T15:39:59;99307.19;;;33.44;33.43
57904;BME280;43720;47.462;19.030;2023-07-24T15:43:01;99301.41;;;33.29;32.65
